Aviation Digital Data Service (ADDS)

Output produced by METARs form (0216 UTC 19 February 2019)
found at http://www.aviationweather.gov/metar/data/
 
Forecast for: FBFT (FRANCISTOWN , BW)
Text: TAF FBFT 190000Z 1903/1912 10015KT 9999 BKN014
Forecast period: 0300 to 0900 UTC 19 February 2019
Forecast type: FROM: standard forecast or significant change
Winds: from the E (100 degrees) at 17 MPH (15 knots; 7.7 m/s)
Visibility: 6 or more miles 10+ km)
Ceiling: 1400 feet AGL
Clouds: broken clouds at 1400 feet AGL
Weather: no significant weather forecast for this period
Text: BECMG 1909/1911 SCT025
Forecast period: 0900 to 1200 UTC 19 February 2019
Forecast type: BECOMING: Conditions expected to become as follows by 1100 UTC 19 February 2019
Winds: from the E (100 degrees) at 17 MPH (15 knots; 7.7 m/s)
Visibility: 6 or more miles 10+ km)
Ceiling: at least 12,000 feet AGL
Clouds: scattered clouds at 2500 feet AGL
Weather: no significant weather forecast for this period